KROC

Greater Rochester International Airport

Rochester, New York, USA
METAR KROC 200854Z 00000KT 10SM SCT150 SCT200 13/11 A2994 RMK AO2 SLP139 T01280111 55000
Observed Flight Rules
Jun-20 @ 08:54 UTC (17 minutes ago) Visual Flight Rules
Visibility Clouds
10 miles
  • Scattered at 15,000' AGL
  • Scattered at 20,000' AGL
Temperatures Readings
Current 13°C / 55°F
Dewpoint 11°C / 52°F
Humidity 88%
Altimeter 29.94" Hg
Pressure 1013.9 hPa
Elevation 178
METAR KROC 200854Z 00000KT 10SM SCT150 SCT200 13/11 A2994 RMK AO2 SLP139 T01280111 55000
Observed Flight Rules
Jun-20 @ 08:54 UTC
(17 minutes ago)
VFR
Clouds
  • Scattered at 15,000' AGL
  • Scattered at 20,000' AGL
Temperature Dewpoint
13°C / 55°F 11°C / 52°F
Humidity Altimeter Pressure
88% 29.94" Hg 1013.9 hPa